sensor_id;sensor_type;location;lat;lon;timestamp;temperature;humidity
18823;DHT22;9540;51.550;7.980;2023-02-13T00:01:35;6.80;99.90
18823;DHT22;9540;51.550;7.980;2023-02-13T00:04:02;6.80;99.90
18823;DHT22;9540;51.550;7.980;2023-02-13T00:06:31;6.90;99.90
18823;DHT22;9540;51.550;7.980;2023-02-13T00:08:58;7.00;99.90
18823;DHT22;9540;51.550;7.980;2023-02-13T00:11:25;7.00;99.90
18823;DHT22;9540;51.550;7.980;2023-02-13T00:13:52;7.00;99.90
18823;DHT22;9540;51.550;7.980;2023-02-13T00:16:20;7.00;99.90
18823;DHT22;9540;51.550;7.980;2023-02-13T00:18:47;7.00;99.90
18823;DHT22;9540;51.550;7.980;2023-02-13T00:21:14;6.90;99.90
18823;DHT22;9540;51.550;7.980;2023-02-13T00:23:42;6.90;99.90
18823;DHT22;9540;51.550;7.980;2023-02-13T00:26:11;6.90;99.90
18823;DHT22;9540;51.550;7.980;2023-02-13T00:28:38;7.00;99.90
18823;DHT22;9540;51.550;7.980;2023-02-13T00:31:07;7.00;99.90
18823;DHT22;9540;51.550;7.980;2023-02-13T00:33:35;7.00;99.90
18823;DHT22;9540;51.550;7.980;2023-02-13T00:36:04;7.00;99.90
18823;DHT22;9540;51.550;7.980;2023-02-13T00:38:32;7.00;99.90
18823;DHT22;9540;51.550;7.980;2023-02-13T00:41:01;7.00;99.90
18823;DHT22;9540;51.550;7.980;2023-02-13T00:43:29;7.00;99.90
18823;DHT22;9540;51.550;7.980;2023-02-13T00:45:56;7.00;99.90
18823;DHT22;9540;51.550;7.980;2023-02-13T00:48:24;7.00;99.90
18823;DHT22;9540;51.550;7.980;2023-02-13T00:50:57;7.00;99.90
18823;DHT22;9540;51.550;7.980;2023-02-13T00:53:25;7.00;99.90
18823;DHT22;9540;51.550;7.980;2023-02-13T00:55:52;7.00;99.90
18823;DHT22;9540;51.550;7.980;2023-02-13T00:58:21;7.00;99.90
18823;DHT22;9540;51.550;7.980;2023-02-13T01:00:49;7.10;99.90
18823;DHT22;9540;51.550;7.980;2023-02-13T01:03:18;7.10;99.90
18823;DHT22;9540;51.550;7.980;2023-02-13T01:05:45;7.10;99.90
18823;DHT22;9540;51.550;7.980;2023-02-13T01:08:13;7.10;99.90
18823;DHT22;9540;51.550;7.980;2023-02-13T01:10:42;7.10;99.90
18823;DHT22;9540;51.550;7.980;2023-02-13T01:13:10;7.10;99.90
18823;DHT22;9540;51.550;7.980;2023-02-13T01:15:40;7.10;99.90
18823;DHT22;9540;51.550;7.980;2023-02-13T01:18:08;7.10;99.90
18823;DHT22;9540;51.550;7.980;2023-02-13T01:20:35;7.00;99.90
18823;DHT22;9540;51.550;7.980;2023-02-13T01:23:02;7.10;99.90
18823;DHT22;9540;51.550;7.980;2023-02-13T01:25:30;7.10;99.90
18823;DHT22;9540;51.550;7.980;2023-02-13T01:27:57;7.10;99.90
18823;DHT22;9540;51.550;7.980;2023-02-13T01:30:24;7.10;99.90
18823;DHT22;9540;51.550;7.980;2023-02-13T01:32:53;7.10;99.90
18823;DHT22;9540;51.550;7.980;2023-02-13T01:35:20;7.00;99.90
18823;DHT22;9540;51.550;7.980;2023-02-13T01:37:47;7.00;99.90
18823;DHT22;9540;51.550;7.980;2023-02-13T01:40:14;7.00;99.90
18823;DHT22;9540;51.550;7.980;2023-02-13T01:42:42;6.90;99.90
18823;DHT22;9540;51.550;7.980;2023-02-13T01:45:20;6.90;99.90
18823;DHT22;9540;51.550;7.980;2023-02-13T01:47:53;6.90;99.90
18823;DHT22;9540;51.550;7.980;2023-02-13T01:50:26;6.80;99.90
18823;DHT22;9540;51.550;7.980;2023-02-13T01:52:58;6.90;99.90
18823;DHT22;9540;51.550;7.980;2023-02-13T01:55:27;6.90;99.90
18823;DHT22;9540;51.550;7.980;2023-02-13T01:57:58;6.90;99.90
18823;DHT22;9540;51.550;7.980;2023-02-13T02:00:28;6.90;99.90
18823;DHT22;9540;51.550;7.980;2023-02-13T02:02:59;6.90;99.90
18823;DHT22;9540;51.550;7.980;2023-02-13T02:05:29;6.90;99.90
18823;DHT22;9540;51.550;7.980;2023-02-13T02:07:57;6.90;99.90
18823;DHT22;9540;51.550;7.980;2023-02-13T02:10:26;6.90;99.90
18823;DHT22;9540;51.550;7.980;2023-02-13T02:13:00;6.90;99.90
18823;DHT22;9540;51.550;7.980;2023-02-13T02:15:29;6.90;99.90
18823;DHT22;9540;51.550;7.980;2023-02-13T02:17:57;6.80;99.90
18823;DHT22;9540;51.550;7.980;2023-02-13T02:20:36;6.80;99.90
18823;DHT22;9540;51.550;7.980;2023-02-13T02:23:39;6.80;99.90
18823;DHT22;9540;51.550;7.980;2023-02-13T02:30:04;6.80;99.90
18823;DHT22;9540;51.550;7.980;2023-02-13T02:32:55;6.80;99.90
18823;DHT22;9540;51.550;7.980;2023-02-13T02:35:30;6.80;99.90
18823;DHT22;9540;51.550;7.980;2023-02-13T02:38:16;6.80;99.90
18823;DHT22;9540;51.550;7.980;2023-02-13T02:40:54;6.80;99.90
18823;DHT22;9540;51.550;7.980;2023-02-13T02:43:38;6.80;99.90
18823;DHT22;9540;51.550;7.980;2023-02-13T02:46:12;6.80;99.90
18823;DHT22;9540;51.550;7.980;2023-02-13T02:48:49;6.80;99.90
18823;DHT22;9540;51.550;7.980;2023-02-13T02:51:40;6.80;99.90
18823;DHT22;9540;51.550;7.980;2023-02-13T02:54:14;6.80;99.90
18823;DHT22;9540;51.550;7.980;2023-02-13T02:57:06;6.80;99.90
18823;DHT22;9540;51.550;7.980;2023-02-13T02:59:36;6.80;99.90
18823;DHT22;9540;51.550;7.980;2023-02-13T03:02:22;6.80;99.90
18823;DHT22;9540;51.550;7.980;2023-02-13T03:05:16;6.90;99.90
18823;DHT22;9540;51.550;7.980;2023-02-13T03:08:03;6.90;99.90
18823;DHT22;9540;51.550;7.980;2023-02-13T03:10:34;6.80;99.90
18823;DHT22;9540;51.550;7.980;2023-02-13T03:13:35;6.80;99.90
18823;DHT22;9540;51.550;7.980;2023-02-13T03:16:04;6.70;99.90
18823;DHT22;9540;51.550;7.980;2023-02-13T03:18:51;6.70;99.90
18823;DHT22;9540;51.550;7.980;2023-02-13T03:21:46;6.80;99.90
18823;DHT22;9540;51.550;7.980;2023-02-13T03:24:38;6.80;99.90
18823;DHT22;9540;51.550;7.980;2023-02-13T03:27:17;6.80;99.90
18823;DHT22;9540;51.550;7.980;2023-02-13T03:30:17;6.80;99.90
18823;DHT22;9540;51.550;7.980;2023-02-13T03:32:53;6.80;99.90
18823;DHT22;9540;51.550;7.980;2023-02-13T03:35:31;6.90;99.90
18823;DHT22;9540;51.550;7.980;2023-02-13T03:38:25;6.90;99.90
18823;DHT22;9540;51.550;7.980;2023-02-13T03:40:58;6.80;99.90
18823;DHT22;9540;51.550;7.980;2023-02-13T03:43:51;6.80;99.90
18823;DHT22;9540;51.550;7.980;2023-02-13T03:46:20;6.70;99.90
18823;DHT22;9540;51.550;7.980;2023-02-13T03:48:49;6.70;99.90
18823;DHT22;9540;51.550;7.980;2023-02-13T03:51:38;6.60;99.90
18823;DHT22;9540;51.550;7.980;2023-02-13T03:54:17;6.60;99.90
18823;DHT22;9540;51.550;7.980;2023-02-13T03:56:48;6.60;99.90
18823;DHT22;9540;51.550;7.980;2023-02-13T03:59:35;6.60;99.90
18823;DHT22;9540;51.550;7.980;2023-02-13T04:02:09;6.60;99.90
18823;DHT22;9540;51.550;7.980;2023-02-13T04:04:43;6.70;99.90
18823;DHT22;9540;51.550;7.980;2023-02-13T04:07:14;6.70;99.90
18823;DHT22;9540;51.550;7.980;2023-02-13T04:09:56;6.70;99.90
18823;DHT22;9540;51.550;7.980;2023-02-13T04:12:32;6.60;99.90
18823;DHT22;9540;51.550;7.980;2023-02-13T04:15:05;6.60;99.90
18823;DHT22;9540;51.550;7.980;2023-02-13T04:17:37;6.50;99.90
18823;DHT22;9540;51.550;7.980;2023-02-13T04:20:06;6.50;99.90
18823;DHT22;9540;51.550;7.980;2023-02-13T04:22:40;6.50;99.90
18823;DHT22;9540;51.550;7.980;2023-02-13T04:25:09;6.50;99.90
18823;DHT22;9540;51.550;7.980;2023-02-13T04:27:37;6.50;99.90
18823;DHT22;9540;51.550;7.980;2023-02-13T04:30:05;6.50;99.90
18823;DHT22;9540;51.550;7.980;2023-02-13T04:32:33;6.50;99.90
18823;DHT22;9540;51.550;7.980;2023-02-13T04:35:00;6.40;99.90
18823;DHT22;9540;51.550;7.980;2023-02-13T04:37:28;6.40;99.90
18823;DHT22;9540;51.550;7.980;2023-02-13T04:39:55;6.40;99.90
18823;DHT22;9540;51.550;7.980;2023-02-13T04:42:23;6.40;99.90
18823;DHT22;9540;51.550;7.980;2023-02-13T04:44:50;6.40;99.90
18823;DHT22;9540;51.550;7.980;2023-02-13T04:47:17;6.30;99.90
18823;DHT22;9540;51.550;7.980;2023-02-13T04:49:45;6.30;99.90
18823;DHT22;9540;51.550;7.980;2023-02-13T04:52:12;6.30;99.90
18823;DHT22;9540;51.550;7.980;2023-02-13T04:54:39;6.40;99.90
18823;DHT22;9540;51.550;7.980;2023-02-13T04:57:07;6.30;99.90
18823;DHT22;9540;51.550;7.980;2023-02-13T04:59:35;6.30;99.90
18823;DHT22;9540;51.550;7.980;2023-02-13T05:02:02;6.30;99.90
18823;DHT22;9540;51.550;7.980;2023-02-13T05:04:29;6.30;99.90
18823;DHT22;9540;51.550;7.980;2023-02-13T05:06:56;6.30;99.90
18823;DHT22;9540;51.550;7.980;2023-02-13T05:09:24;6.30;99.90
18823;DHT22;9540;51.550;7.980;2023-02-13T05:11:51;6.20;99.90
18823;DHT22;9540;51.550;7.980;2023-02-13T05:14:18;6.20;99.90
18823;DHT22;9540;51.550;7.980;2023-02-13T05:16:47;6.20;99.90
18823;DHT22;9540;51.550;7.980;2023-02-13T05:19:15;6.20;99.90
18823;DHT22;9540;51.550;7.980;2023-02-13T05:21:42;6.20;99.90
18823;DHT22;9540;51.550;7.980;2023-02-13T05:24:26;6.20;99.90
18823;DHT22;9540;51.550;7.980;2023-02-13T05:26:53;6.20;99.90
18823;DHT22;9540;51.550;7.980;2023-02-13T05:29:20;6.20;99.90
18823;DHT22;9540;51.550;7.980;2023-02-13T05:31:50;6.30;99.90
18823;DHT22;9540;51.550;7.980;2023-02-13T05:34:18;6.30;99.90
18823;DHT22;9540;51.550;7.980;2023-02-13T05:36:46;6.30;99.90
18823;DHT22;9540;51.550;7.980;2023-02-13T05:39:13;6.30;99.90
18823;DHT22;9540;51.550;7.980;2023-02-13T05:41:41;6.30;99.90
18823;DHT22;9540;51.550;7.980;2023-02-13T05:44:09;6.30;99.90
18823;DHT22;9540;51.550;7.980;2023-02-13T05:46:37;6.30;99.90
18823;DHT22;9540;51.550;7.980;2023-02-13T05:49:06;6.30;99.90
18823;DHT22;9540;51.550;7.980;2023-02-13T05:51:35;6.30;99.90
18823;DHT22;9540;51.550;7.980;2023-02-13T05:54:02;6.40;99.90
18823;DHT22;9540;51.550;7.980;2023-02-13T05:56:29;6.40;99.90
18823;DHT22;9540;51.550;7.980;2023-02-13T05:58:57;6.30;99.90
18823;DHT22;9540;51.550;7.980;2023-02-13T06:01:24;6.40;99.90
18823;DHT22;9540;51.550;7.980;2023-02-13T06:03:51;6.30;99.90
18823;DHT22;9540;51.550;7.980;2023-02-13T06:06:20;6.30;99.90
18823;DHT22;9540;51.550;7.980;2023-02-13T06:08:48;6.30;99.90
18823;DHT22;9540;51.550;7.980;2023-02-13T06:11:15;6.30;99.90
18823;DHT22;9540;51.550;7.980;2023-02-13T06:13:42;6.30;99.90
18823;DHT22;9540;51.550;7.980;2023-02-13T06:16:10;6.30;99.90
18823;DHT22;9540;51.550;7.980;2023-02-13T06:18:38;6.30;99.90
18823;DHT22;9540;51.550;7.980;2023-02-13T06:21:06;6.30;99.90
18823;DHT22;9540;51.550;7.980;2023-02-13T06:23:34;6.30;99.90
18823;DHT22;9540;51.550;7.980;2023-02-13T06:26:02;6.30;99.90
18823;DHT22;9540;51.550;7.980;2023-02-13T06:28:30;6.30;99.90
18823;DHT22;9540;51.550;7.980;2023-02-13T06:30:57;6.40;99.90
18823;DHT22;9540;51.550;7.980;2023-02-13T06:33:25;6.40;99.90
18823;DHT22;9540;51.550;7.980;2023-02-13T06:35:52;6.40;99.90
18823;DHT22;9540;51.550;7.980;2023-02-13T06:38:19;6.40;99.90
18823;DHT22;9540;51.550;7.980;2023-02-13T06:40:49;6.40;99.90
18823;DHT22;9540;51.550;7.980;2023-02-13T06:43:20;6.40;99.90
18823;DHT22;9540;51.550;7.980;2023-02-13T06:45:50;6.40;99.90
18823;DHT22;9540;51.550;7.980;2023-02-13T06:48:18;6.30;99.90
18823;DHT22;9540;51.550;7.980;2023-02-13T06:50:45;6.30;99.90
18823;DHT22;9540;51.550;7.980;2023-02-13T06:53:12;6.30;99.90
18823;DHT22;9540;51.550;7.980;2023-02-13T06:55:39;6.30;99.90
18823;DHT22;9540;51.550;7.980;2023-02-13T06:58:08;6.30;99.90
18823;DHT22;9540;51.550;7.980;2023-02-13T07:00:35;6.30;99.90
18823;DHT22;9540;51.550;7.980;2023-02-13T07:03:04;6.30;99.90
18823;DHT22;9540;51.550;7.980;2023-02-13T07:05:32;6.40;99.90
18823;DHT22;9540;51.550;7.980;2023-02-13T07:07:59;6.40;99.90
18823;DHT22;9540;51.550;7.980;2023-02-13T07:10:26;6.50;99.90
18823;DHT22;9540;51.550;7.980;2023-02-13T07:12:53;6.50;99.90
18823;DHT22;9540;51.550;7.980;2023-02-13T07:15:22;6.50;99.90
18823;DHT22;9540;51.550;7.980;2023-02-13T07:17:54;6.40;99.90
18823;DHT22;9540;51.550;7.980;2023-02-13T07:20:21;6.40;99.90
18823;DHT22;9540;51.550;7.980;2023-02-13T07:22:48;6.50;99.90
18823;DHT22;9540;51.550;7.980;2023-02-13T07:25:16;6.50;99.90
18823;DHT22;9540;51.550;7.980;2023-02-13T07:27:43;6.50;99.90
18823;DHT22;9540;51.550;7.980;2023-02-13T07:30:11;6.60;99.90
18823;DHT22;9540;51.550;7.980;2023-02-13T07:32:40;6.60;99.90
18823;DHT22;9540;51.550;7.980;2023-02-13T07:35:07;6.50;99.90
18823;DHT22;9540;51.550;7.980;2023-02-13T07:37:34;6.50;99.90
18823;DHT22;9540;51.550;7.980;2023-02-13T07:40:01;6.60;99.90
18823;DHT22;9540;51.550;7.980;2023-02-13T07:42:32;6.60;99.90
18823;DHT22;9540;51.550;7.980;2023-02-13T07:44:59;6.80;99.90
18823;DHT22;9540;51.550;7.980;2023-02-13T07:47:26;6.90;99.90
18823;DHT22;9540;51.550;7.980;2023-02-13T07:49:58;7.00;99.90
18823;DHT22;9540;51.550;7.980;2023-02-13T07:52:25;7.10;99.90
18823;DHT22;9540;51.550;7.980;2023-02-13T07:54:52;7.20;99.90
18823;DHT22;9540;51.550;7.980;2023-02-13T07:57:19;7.30;99.90
18823;DHT22;9540;51.550;7.980;2023-02-13T07:59:46;7.80;99.90
18823;DHT22;9540;51.550;7.980;2023-02-13T08:02:14;8.60;99.90
18823;DHT22;9540;51.550;7.980;2023-02-13T08:04:41;9.40;99.90
18823;DHT22;9540;51.550;7.980;2023-02-13T08:07:12;9.80;99.90
18823;DHT22;9540;51.550;7.980;2023-02-13T08:09:39;10.10;99.90
18823;DHT22;9540;51.550;7.980;2023-02-13T08:12:24;10.50;99.90
18823;DHT22;9540;51.550;7.980;2023-02-13T08:14:52;11.40;99.90
18823;DHT22;9540;51.550;7.980;2023-02-13T08:17:19;12.20;99.90
18823;DHT22;9540;51.550;7.980;2023-02-13T08:19:47;12.60;99.90
18823;DHT22;9540;51.550;7.980;2023-02-13T08:22:15;13.10;99.90
18823;DHT22;9540;51.550;7.980;2023-02-13T08:24:42;13.60;99.90
18823;DHT22;9540;51.550;7.980;2023-02-13T08:27:11;14.20;99.90
18823;DHT22;9540;51.550;7.980;2023-02-13T08:29:38;14.40;99.90
18823;DHT22;9540;51.550;7.980;2023-02-13T08:32:06;15.00;99.90
18823;DHT22;9540;51.550;7.980;2023-02-13T08:34:34;15.30;99.90
18823;DHT22;9540;51.550;7.980;2023-02-13T08:37:01;15.60;99.90
18823;DHT22;9540;51.550;7.980;2023-02-13T08:39:30;15.80;99.90
18823;DHT22;9540;51.550;7.980;2023-02-13T08:41:57;15.60;99.90
18823;DHT22;9540;51.550;7.980;2023-02-13T08:44:24;15.20;99.90
18823;DHT22;9540;51.550;7.980;2023-02-13T08:46:52;15.10;99.90
18823;DHT22;9540;51.550;7.980;2023-02-13T08:49:19;14.90;99.90
18823;DHT22;9540;51.550;7.980;2023-02-13T08:51:48;14.60;99.90
18823;DHT22;9540;51.550;7.980;2023-02-13T08:54:15;15.10;99.90
18823;DHT22;9540;51.550;7.980;2023-02-13T08:56:43;15.10;99.90
18823;DHT22;9540;51.550;7.980;2023-02-13T08:59:11;15.20;99.90
18823;DHT22;9540;51.550;7.980;2023-02-13T09:01:38;14.60;99.90
18823;DHT22;9540;51.550;7.980;2023-02-13T09:04:05;13.60;99.90
18823;DHT22;9540;51.550;7.980;2023-02-13T09:06:32;13.80;99.90
18823;DHT22;9540;51.550;7.980;2023-02-13T09:08:59;14.40;99.90
18823;DHT22;9540;51.550;7.980;2023-02-13T09:11:26;14.90;99.90
18823;DHT22;9540;51.550;7.980;2023-02-13T09:13:55;15.00;99.90
18823;DHT22;9540;51.550;7.980;2023-02-13T09:16:22;15.20;99.90
18823;DHT22;9540;51.550;7.980;2023-02-13T09:18:50;15.40;99.90
18823;DHT22;9540;51.550;7.980;2023-02-13T09:21:19;15.70;99.90
18823;DHT22;9540;51.550;7.980;2023-02-13T09:23:48;15.70;99.90
18823;DHT22;9540;51.550;7.980;2023-02-13T09:26:17;15.80;99.90
18823;DHT22;9540;51.550;7.980;2023-02-13T09:28:44;15.70;99.90
18823;DHT22;9540;51.550;7.980;2023-02-13T09:31:14;15.40;99.90
18823;DHT22;9540;51.550;7.980;2023-02-13T09:33:43;15.90;99.90
18823;DHT22;9540;51.550;7.980;2023-02-13T09:36:12;16.10;99.90
18823;DHT22;9540;51.550;7.980;2023-02-13T09:38:40;16.50;99.90
18823;DHT22;9540;51.550;7.980;2023-02-13T09:41:11;17.10;99.20
18823;DHT22;9540;51.550;7.980;2023-02-13T09:43:43;17.10;97.60
18823;DHT22;9540;51.550;7.980;2023-02-13T09:46:17;17.10;98.20
18823;DHT22;9540;51.550;7.980;2023-02-13T09:48:47;17.00;99.90
18823;DHT22;9540;51.550;7.980;2023-02-13T09:51:17;17.00;99.90
18823;DHT22;9540;51.550;7.980;2023-02-13T09:53:51;17.50;99.90
18823;DHT22;9540;51.550;7.980;2023-02-13T09:56:23;17.50;98.40
18823;DHT22;9540;51.550;7.980;2023-02-13T09:58:57;17.60;98.10
18823;DHT22;9540;51.550;7.980;2023-02-13T10:01:31;17.50;99.10
18823;DHT22;9540;51.550;7.980;2023-02-13T10:04:24;17.30;99.90
18823;DHT22;9540;51.550;7.980;2023-02-13T10:07:06;17.30;99.90
18823;DHT22;9540;51.550;7.980;2023-02-13T10:09:42;17.00;99.90
18823;DHT22;9540;51.550;7.980;2023-02-13T10:15:30;15.00;99.90
18823;DHT22;9540;51.550;7.980;2023-02-13T10:18:08;14.40;99.90
18823;DHT22;9540;51.550;7.980;2023-02-13T10:20:40;13.90;99.90
18823;DHT22;9540;51.550;7.980;2023-02-13T10:23:18;14.00;99.90
18823;DHT22;9540;51.550;7.980;2023-02-13T10:25:48;14.30;99.90
18823;DHT22;9540;51.550;7.980;2023-02-13T10:28:27;14.40;99.90
18823;DHT22;9540;51.550;7.980;2023-02-13T10:30:57;14.00;99.90
18823;DHT22;9540;51.550;7.980;2023-02-13T10:33:35;13.50;99.90
18823;DHT22;9540;51.550;7.980;2023-02-13T10:36:10;13.50;99.90
18823;DHT22;9540;51.550;7.980;2023-02-13T10:38:43;13.40;99.90
18823;DHT22;9540;51.550;7.980;2023-02-13T10:41:24;12.80;99.90
18823;DHT22;9540;51.550;7.980;2023-02-13T10:44:11;12.40;99.90
18823;DHT22;9540;51.550;7.980;2023-02-13T10:46:45;12.20;99.90
18823;DHT22;9540;51.550;7.980;2023-02-13T10:49:36;12.20;99.90
18823;DHT22;9540;51.550;7.980;2023-02-13T10:52:17;12.00;99.90
18823;DHT22;9540;51.550;7.980;2023-02-13T10:54:57;11.80;99.90
18823;DHT22;9540;51.550;7.980;2023-02-13T10:57:47;11.50;99.90
18823;DHT22;9540;51.550;7.980;2023-02-13T11:00:25;11.30;99.90
18823;DHT22;9540;51.550;7.980;2023-02-13T11:02:55;11.70;99.90
18823;DHT22;9540;51.550;7.980;2023-02-13T11:05:28;11.90;99.90
18823;DHT22;9540;51.550;7.980;2023-02-13T11:07:56;11.70;99.90
18823;DHT22;9540;51.550;7.980;2023-02-13T11:10:24;11.70;99.90
18823;DHT22;9540;51.550;7.980;2023-02-13T11:12:52;11.50;99.90
18823;DHT22;9540;51.550;7.980;2023-02-13T11:15:22;11.40;99.90
18823;DHT22;9540;51.550;7.980;2023-02-13T11:17:51;11.20;99.90
18823;DHT22;9540;51.550;7.980;2023-02-13T11:20:30;11.30;99.90
18823;DHT22;9540;51.550;7.980;2023-02-13T11:23:32;11.30;99.90
18823;DHT22;9540;51.550;7.980;2023-02-13T11:26:02;11.20;99.90
18823;DHT22;9540;51.550;7.980;2023-02-13T11:28:31;11.10;99.90
18823;DHT22;9540;51.550;7.980;2023-02-13T11:31:12;11.20;99.90
18823;DHT22;9540;51.550;7.980;2023-02-13T11:33:39;11.20;99.90
18823;DHT22;9540;51.550;7.980;2023-02-13T11:36:09;11.30;99.90
18823;DHT22;9540;51.550;7.980;2023-02-13T11:38:39;11.30;99.90
18823;DHT22;9540;51.550;7.980;2023-02-13T11:41:09;11.40;99.90
18823;DHT22;9540;51.550;7.980;2023-02-13T11:43:43;11.40;99.90
18823;DHT22;9540;51.550;7.980;2023-02-13T11:46:20;11.40;99.90
18823;DHT22;9540;51.550;7.980;2023-02-13T11:49:05;11.60;99.90
18823;DHT22;9540;51.550;7.980;2023-02-13T11:51:40;11.60;99.90
18823;DHT22;9540;51.550;7.980;2023-02-13T11:54:23;11.70;99.90
18823;DHT22;9540;51.550;7.980;2023-02-13T11:56:52;11.80;99.90
18823;DHT22;9540;51.550;7.980;2023-02-13T11:59:22;11.90;99.90
18823;DHT22;9540;51.550;7.980;2023-02-13T12:02:02;11.90;99.90
18823;DHT22;9540;51.550;7.980;2023-02-13T12:04:29;11.90;99.90
18823;DHT22;9540;51.550;7.980;2023-02-13T12:07:00;12.00;99.90
18823;DHT22;9540;51.550;7.980;2023-02-13T12:09:28;12.20;99.90
18823;DHT22;9540;51.550;7.980;2023-02-13T12:11:57;12.30;99.90
18823;DHT22;9540;51.550;7.980;2023-02-13T12:14:31;12.10;99.90
18823;DHT22;9540;51.550;7.980;2023-02-13T12:17:03;12.00;99.90
18823;DHT22;9540;51.550;7.980;2023-02-13T12:19:36;12.20;99.90
18823;DHT22;9540;51.550;7.980;2023-02-13T12:22:27;12.50;99.90
18823;DHT22;9540;51.550;7.980;2023-02-13T12:25:31;12.30;99.90
18823;DHT22;9540;51.550;7.980;2023-02-13T12:28:08;12.50;99.90
18823;DHT22;9540;51.550;7.980;2023-02-13T12:30:49;12.80;99.90
18823;DHT22;9540;51.550;7.980;2023-02-13T12:33:30;13.30;99.90
18823;DHT22;9540;51.550;7.980;2023-02-13T12:36:09;14.00;99.90
18823;DHT22;9540;51.550;7.980;2023-02-13T12:38:50;14.30;99.90
18823;DHT22;9540;51.550;7.980;2023-02-13T12:41:22;14.50;99.90
18823;DHT22;9540;51.550;7.980;2023-02-13T12:47:13;14.70;99.90
18823;DHT22;9540;51.550;7.980;2023-02-13T12:50:06;14.80;99.90
18823;DHT22;9540;51.550;7.980;2023-02-13T12:52:57;14.80;99.90
18823;DHT22;9540;51.550;7.980;2023-02-13T12:55:40;14.90;99.90
18823;DHT22;9540;51.550;7.980;2023-02-13T13:01:08;14.50;99.90
18823;DHT22;9540;51.550;7.980;2023-02-13T13:03:48;13.80;99.90
18823;DHT22;9540;51.550;7.980;2023-02-13T13:06:35;13.40;99.90
18823;DHT22;9540;51.550;7.980;2023-02-13T13:09:41;13.10;99.90
18823;DHT22;9540;51.550;7.980;2023-02-13T13:12:27;12.70;99.90
18823;DHT22;9540;51.550;7.980;2023-02-13T13:15:02;12.20;99.90
18823;DHT22;9540;51.550;7.980;2023-02-13T13:17:45;12.00;99.90
18823;DHT22;9540;51.550;7.980;2023-02-13T13:20:36;11.80;99.90
18823;DHT22;9540;51.550;7.980;2023-02-13T13:23:14;11.50;99.90
18823;DHT22;9540;51.550;7.980;2023-02-13T13:25:47;11.30;99.90
18823;DHT22;9540;51.550;7.980;2023-02-13T13:28:19;11.20;99.90
18823;DHT22;9540;51.550;7.980;2023-02-13T13:30:48;11.40;99.90
18823;DHT22;9540;51.550;7.980;2023-02-13T13:33:17;11.40;99.90
18823;DHT22;9540;51.550;7.980;2023-02-13T13:36:00;11.30;99.90
18823;DHT22;9540;51.550;7.980;2023-02-13T13:38:39;11.10;99.90
18823;DHT22;9540;51.550;7.980;2023-02-13T13:41:14;11.00;99.90
18823;DHT22;9540;51.550;7.980;2023-02-13T13:44:01;10.90;99.90
18823;DHT22;9540;51.550;7.980;2023-02-13T13:46:39;10.80;99.90
18823;DHT22;9540;51.550;7.980;2023-02-13T13:49:20;10.70;99.90
18823;DHT22;9540;51.550;7.980;2023-02-13T13:51:51;10.80;99.90
18823;DHT22;9540;51.550;7.980;2023-02-13T13:54:24;10.70;99.90
18823;DHT22;9540;51.550;7.980;2023-02-13T13:57:10;10.80;99.90
18823;DHT22;9540;51.550;7.980;2023-02-13T14:03:19;10.90;99.90
18823;DHT22;9540;51.550;7.980;2023-02-13T14:06:04;10.80;99.90
18823;DHT22;9540;51.550;7.980;2023-02-13T14:11:39;10.60;99.90
18823;DHT22;9540;51.550;7.980;2023-02-13T14:20:39;10.70;99.90
18823;DHT22;9540;51.550;7.980;2023-02-13T14:23:15;10.80;99.90
18823;DHT22;9540;51.550;7.980;2023-02-13T14:25:44;11.20;99.90
18823;DHT22;9540;51.550;7.980;2023-02-13T14:28:21;11.60;99.90
18823;DHT22;9540;51.550;7.980;2023-02-13T14:30:49;12.00;99.90
18823;DHT22;9540;51.550;7.980;2023-02-13T14:33:24;12.50;99.90
18823;DHT22;9540;51.550;7.980;2023-02-13T14:36:02;12.70;99.90
18823;DHT22;9540;51.550;7.980;2023-02-13T14:38:30;12.80;99.90
18823;DHT22;9540;51.550;7.980;2023-02-13T14:40:58;12.80;99.90
18823;DHT22;9540;51.550;7.980;2023-02-13T14:43:34;12.70;99.90
18823;DHT22;9540;51.550;7.980;2023-02-13T14:46:15;12.70;99.90
18823;DHT22;9540;51.550;7.980;2023-02-13T14:48:47;12.60;99.90
18823;DHT22;9540;51.550;7.980;2023-02-13T14:51:20;12.30;99.90
18823;DHT22;9540;51.550;7.980;2023-02-13T14:53:57;12.00;99.90
18823;DHT22;9540;51.550;7.980;2023-02-13T14:56:25;11.90;99.90
18823;DHT22;9540;51.550;7.980;2023-02-13T14:58:59;11.60;99.90
18823;DHT22;9540;51.550;7.980;2023-02-13T15:01:30;11.50;99.90
18823;DHT22;9540;51.550;7.980;2023-02-13T15:04:04;11.40;99.90
18823;DHT22;9540;51.550;7.980;2023-02-13T15:06:38;11.30;99.90
18823;DHT22;9540;51.550;7.980;2023-02-13T15:09:18;11.20;99.90
18823;DHT22;9540;51.550;7.980;2023-02-13T15:11:46;11.10;99.90
18823;DHT22;9540;51.550;7.980;2023-02-13T15:14:21;11.00;99.90
18823;DHT22;9540;51.550;7.980;2023-02-13T15:16:52;10.90;99.90
18823;DHT22;9540;51.550;7.980;2023-02-13T15:19:21;10.80;99.90
18823;DHT22;9540;51.550;7.980;2023-02-13T15:21:53;10.80;99.90
18823;DHT22;9540;51.550;7.980;2023-02-13T15:24:22;10.90;99.90
18823;DHT22;9540;51.550;7.980;2023-02-13T15:27:01;10.80;99.90
18823;DHT22;9540;51.550;7.980;2023-02-13T15:29:29;10.80;99.90
18823;DHT22;9540;51.550;7.980;2023-02-13T15:31:57;10.70;99.90
18823;DHT22;9540;51.550;7.980;2023-02-13T15:34:26;10.60;99.90
18823;DHT22;9540;51.550;7.980;2023-02-13T15:36:55;10.40;99.90
18823;DHT22;9540;51.550;7.980;2023-02-13T15:39:24;10.30;99.90
18823;DHT22;9540;51.550;7.980;2023-02-13T15:41:54;10.10;99.90
18823;DHT22;9540;51.550;7.980;2023-02-13T15:44:25;10.00;99.90
18823;DHT22;9540;51.550;7.980;2023-02-13T15:46:54;9.90;99.90
18823;DHT22;9540;51.550;7.980;2023-02-13T15:49:24;9.80;99.90
18823;DHT22;9540;51.550;7.980;2023-02-13T15:52:04;9.60;99.90
18823;DHT22;9540;51.550;7.980;2023-02-13T15:54:33;9.40;99.90
18823;DHT22;9540;51.550;7.980;2023-02-13T15:57:02;9.20;99.90
18823;DHT22;9540;51.550;7.980;2023-02-13T15:59:33;9.10;99.90
18823;DHT22;9540;51.550;7.980;2023-02-13T16:02:02;8.90;99.90
18823;DHT22;9540;51.550;7.980;2023-02-13T16:04:29;8.70;99.90
18823;DHT22;9540;51.550;7.980;2023-02-13T16:06:57;8.60;99.90
18823;DHT22;9540;51.550;7.980;2023-02-13T16:09:30;8.50;99.90
18823;DHT22;9540;51.550;7.980;2023-02-13T16:12:03;8.30;99.90
18823;DHT22;9540;51.550;7.980;2023-02-13T16:14:33;8.20;99.90
18823;DHT22;9540;51.550;7.980;2023-02-13T16:17:03;8.10;99.90
18823;DHT22;9540;51.550;7.980;2023-02-13T16:19:37;8.10;99.90
18823;DHT22;9540;51.550;7.980;2023-02-13T16:22:20;8.00;99.90
18823;DHT22;9540;51.550;7.980;2023-02-13T16:24:52;7.80;99.90
18823;DHT22;9540;51.550;7.980;2023-02-13T16:27:22;7.60;99.90
18823;DHT22;9540;51.550;7.980;2023-02-13T16:29:54;7.40;99.90
18823;DHT22;9540;51.550;7.980;2023-02-13T16:32:27;7.20;99.90
18823;DHT22;9540;51.550;7.980;2023-02-13T16:34:55;7.00;99.90
18823;DHT22;9540;51.550;7.980;2023-02-13T16:37:30;6.70;99.90
18823;DHT22;9540;51.550;7.980;2023-02-13T16:40:30;6.50;99.90
18823;DHT22;9540;51.550;7.980;2023-02-13T16:49:15;6.00;99.90
18823;DHT22;9540;51.550;7.980;2023-02-13T16:51:45;5.90;99.90
18823;DHT22;9540;51.550;7.980;2023-02-13T16:54:21;5.80;99.90
18823;DHT22;9540;51.550;7.980;2023-02-13T16:56:52;5.60;99.90
18823;DHT22;9540;51.550;7.980;2023-02-13T16:59:37;5.50;99.90
18823;DHT22;9540;51.550;7.980;2023-02-13T17:02:17;5.40;99.90